United Spirit — ELYB2 — position and weather

sailwx.info

Track history (hours):
 
Tides and Currents Weather Stations Pressure Air Temp Water Temp Dewpoint Dewpoint Depression Visibility Wind Speed Wind Dir Waves Ship Positions

United Spirit

Last reported at 2017-Aug-10 09:06 UTC. Time now 2017-Aug-17 11:47 UTC.
Position N 34°50' E 139°45'.

Type: Cargo ship. MMSI: 636011280.

Date/timePositionNaut miles runAvg speedWind from/ knotsBaromVisibWave heightAir tempDewpointWater temp
2017-Aug-10 09:06N 34°50' E 139°45'512.4
2017-Aug-10 08:43N 34°53' E 139°41'412.4
2017-Aug-10 08:24N 34°57' E 139°39'513.7
2017-Aug-10 08:00N 35°02' E 139°41'713.8
2017-Aug-10 07:30N 35°08' E 139°45'611.8
2017-Aug-10 07:00N 35°14' E 139°46'612.7
2017-Aug-10 06:30N 35°19' E 139°43'713.6
2017-Aug-10 06:00N 35°26' E 139°43'3 5.2
2017-Aug-10 05:29N 35°28' E 139°41'0 0.0
2017-Aug-10 04:59N 35°28' E 139°41'0 0.0
2017-Aug-10 04:29N 35°28' E 139°41'0 0.0
2017-Aug-10 03:59N 35°28' E 139°41'0 0.0
2017-Aug-10 03:29N 35°28' E 139°41'0 0.0
2017-Aug-10 02:59N 35°28' E 139°41'0 0.0
2017-Aug-10 02:29N 35°28' E 139°41'0 0.0
2017-Aug-10 01:59N 35°28' E 139°41'0 0.0
2017-Aug-10 01:29N 35°28' E 139°41'0 0.0
2017-Aug-10 00:59N 35°28' E 139°41'0 0.0
2017-Aug-10 00:29N 35°28' E 139°41'0 0.0
2017-Aug-09 23:59N 35°28' E 139°41'0 0.0
2017-Aug-09 23:29N 35°28' E 139°41'0 0.0
2017-Aug-09 22:59N 35°28' E 139°41'0 0.3
2017-Aug-09 22:30N 35°28' E 139°41'2 3.7
2017-Aug-09 22:00N 35°27' E 139°43'4 7.0
2017-Aug-09 21:30N 35°25' E 139°46'612.8
2017-Aug-09 21:00N 35°19' E 139°44'612.7
2017-Aug-09 20:30N 35°13' E 139°47'5 9.4
2017-Aug-09 20:01N 35°09' E 139°46'4 7.4
2017-Aug-09 19:30N 35°05' E 139°45'4 8.9
2017-Aug-09 19:00N 35°01' E 139°43'510.6
2017-Aug-09 18:30N 34°56' E 139°41'711.9
2017-Aug-09 17:56N 34°50' E 139°38'6714.1
2017-Aug-09 13:10N 34°17' E 138°26'  
2017-Aug-02 10:00N 34°50' E 139°35'714.3
2017-Aug-02 09:30N 34°56' E 139°38'714.7
2017-Aug-02 09:00N 35°03' E 139°40'714.8
2017-Aug-02 08:30N 35°10' E 139°45'611.4
2017-Aug-02 08:00N 35°15' E 139°46'612.4
2017-Aug-02 07:31N 35°21' E 139°42'510.5
2017-Aug-02 07:01N 35°26' E 139°42'2 3.5
2017-Aug-02 06:29N 35°27' E 139°41'0 0.0
2017-Aug-02 05:59N 35°27' E 139°41'0 0.0
2017-Aug-02 05:29N 35°27' E 139°41'0 0.0
2017-Aug-02 04:59N 35°27' E 139°41'0 0.0
2017-Aug-02 04:29N 35°27' E 139°41'0 0.0
2017-Aug-02 03:59N 35°27' E 139°41'0 0.0
2017-Aug-02 03:29N 35°27' E 139°41'0 0.0
2017-Aug-02 02:59N 35°27' E 139°41'0 0.0
2017-Aug-02 02:29N 35°27' E 139°41'0 0.0
2017-Aug-02 01:59N 35°27' E 139°41'  
Track history (hours):
 
Tides and Currents Weather Stations Pressure Air Temp Water Temp Dewpoint Dewpoint Depression Visibility Wind Speed Wind Dir Waves Ship Positions

United Spirit

Last reported at 2017-Aug-10 09:06 UTC. Time now 2017-Aug-17 11:47 UTC.
Position N 34°50' E 139°45'.

Type: Cargo ship. MMSI: 636011280.

Date/timePositionNaut miles runAvg speedWind from/ knotsBaromVisibWave heightAir tempDewpointWater temp
2017-Aug-10 09:06N 34°50' E 139°45'512.4
2017-Aug-10 08:43N 34°53' E 139°41'412.4
2017-Aug-10 08:24N 34°57' E 139°39'513.7
2017-Aug-10 08:00N 35°02' E 139°41'713.8
2017-Aug-10 07:30N 35°08' E 139°45'611.8
2017-Aug-10 07:00N 35°14' E 139°46'612.7
2017-Aug-10 06:30N 35°19' E 139°43'713.6
2017-Aug-10 06:00N 35°26' E 139°43'3 5.2
2017-Aug-10 05:29N 35°28' E 139°41'0 0.0
2017-Aug-10 04:59N 35°28' E 139°41'0 0.0
2017-Aug-10 04:29N 35°28' E 139°41'0 0.0
2017-Aug-10 03:59N 35°28' E 139°41'0 0.0
2017-Aug-10 03:29N 35°28' E 139°41'0 0.0
2017-Aug-10 02:59N 35°28' E 139°41'0 0.0
2017-Aug-10 02:29N 35°28' E 139°41'0 0.0
2017-Aug-10 01:59N 35°28' E 139°41'0 0.0
2017-Aug-10 01:29N 35°28' E 139°41'0 0.0
2017-Aug-10 00:59N 35°28' E 139°41'0 0.0
2017-Aug-10 00:29N 35°28' E 139°41'0 0.0
2017-Aug-09 23:59N 35°28' E 139°41'0 0.0
2017-Aug-09 23:29N 35°28' E 139°41'0 0.0
2017-Aug-09 22:59N 35°28' E 139°41'0 0.3
2017-Aug-09 22:30N 35°28' E 139°41'2 3.7
2017-Aug-09 22:00N 35°27' E 139°43'4 7.0
2017-Aug-09 21:30N 35°25' E 139°46'612.8
2017-Aug-09 21:00N 35°19' E 139°44'612.7
2017-Aug-09 20:30N 35°13' E 139°47'5 9.4
2017-Aug-09 20:01N 35°09' E 139°46'4 7.4
2017-Aug-09 19:30N 35°05' E 139°45'4 8.9
2017-Aug-09 19:00N 35°01' E 139°43'510.6
2017-Aug-09 18:30N 34°56' E 139°41'711.9
2017-Aug-09 17:56N 34°50' E 139°38'6714.1
2017-Aug-09 13:10N 34°17' E 138°26'  
2017-Aug-02 10:00N 34°50' E 139°35'714.3
2017-Aug-02 09:30N 34°56' E 139°38'714.7
2017-Aug-02 09:00N 35°03' E 139°40'714.8
2017-Aug-02 08:30N 35°10' E 139°45'611.4
2017-Aug-02 08:00N 35°15' E 139°46'612.4
2017-Aug-02 07:31N 35°21' E 139°42'510.5
2017-Aug-02 07:01N 35°26' E 139°42'2 3.5
2017-Aug-02 06:29N 35°27' E 139°41'0 0.0
2017-Aug-02 05:59N 35°27' E 139°41'0 0.0
2017-Aug-02 05:29N 35°27' E 139°41'0 0.0
2017-Aug-02 04:59N 35°27' E 139°41'0 0.0
2017-Aug-02 04:29N 35°27' E 139°41'0 0.0
2017-Aug-02 03:59N 35°27' E 139°41'0 0.0
2017-Aug-02 03:29N 35°27' E 139°41'0 0.0
2017-Aug-02 02:59N 35°27' E 139°41'0 0.0
2017-Aug-02 02:29N 35°27' E 139°41'0 0.0
2017-Aug-02 01:59N 35°27' E 139°41'  

Dump ship's entire track history